Time;durP1;ratioP1;P1;durP2;ratioP2;P2;SDS_P1;SDS_P2;PMS_P1;PMS_P2;Temp;Humidity;BMP_temperature;BMP_pressure;BME280_temperature;BME280_humidity;BME280_pressure;Samples;Min_cycle;Max_cycle;Signal;HPM_P1;HPM_P2
2021/10/05 00:01:34;;;;;;;11.67;8.47;;;13.30;99.90;;;;;;5072526;28;20558;-68
2021/10/05 00:04:04;;;;;;;10.80;8.85;;;13.20;99.90;;;;;;5072483;28;20201;-68
2021/10/05 00:06:32;;;;;;;11.80;8.73;;;13.30;99.90;;;;;;5072415;28;20227;-68
2021/10/05 00:09:01;;;;;;;12.50;9.17;;;13.30;99.90;;;;;;5072314;28;20211;-69
2021/10/05 00:11:29;;;;;;;11.07;8.27;;;13.30;99.90;;;;;;5072385;28;20618;-68
2021/10/05 00:13:57;;;;;;;11.27;9.27;;;13.30;99.90;;;;;;5072229;28;20644;-68
2021/10/05 00:16:25;;;;;;;11.23;9.37;;;13.20;99.90;;;;;;5072731;28;20196;-67
2021/10/05 00:18:53;;;;;;;11.82;8.57;;;13.20;99.90;;;;;;5072530;28;20200;-68
2021/10/05 00:21:22;;;;;;;12.67;9.83;;;13.20;99.90;;;;;;5072341;28;20295;-68
2021/10/05 00:23:50;;;;;;;12.02;9.55;;;13.20;99.90;;;;;;5072111;28;20200;-69
2021/10/05 00:26:17;;;;;;;12.32;9.63;;;13.20;99.90;;;;;;5072439;28;20231;-68
2021/10/05 00:28:45;;;;;;;12.00;10.60;;;13.20;99.90;;;;;;5072128;28;20204;-68
2021/10/05 00:31:14;;;;;;;11.77;9.93;;;13.20;99.90;;;;;;5072367;28;20200;-67
2021/10/05 00:33:42;;;;;;;12.70;10.48;;;13.30;99.90;;;;;;5073760;28;20358;-68
2021/10/05 00:36:09;;;;;;;13.87;10.90;;;13.30;99.90;;;;;;5076513;28;20246;-70
2021/10/05 00:38:39;;;;;;;10.97;9.70;;;13.30;99.90;;;;;;5075970;28;20533;-69
2021/10/05 00:41:06;;;;;;;13.03;11.30;;;13.30;99.90;;;;;;5076463;28;20201;-68
2021/10/05 00:43:35;;;;;;;13.83;10.80;;;13.20;99.90;;;;;;5075919;28;20649;-70
2021/10/05 00:46:02;;;;;;;15.37;11.27;;;13.20;99.90;;;;;;5076240;28;20343;-67
2021/10/05 00:48:30;;;;;;;12.63;10.60;;;13.20;99.90;;;;;;5075829;28;20282;-67
2021/10/05 00:50:58;;;;;;;15.27;11.40;;;13.20;99.90;;;;;;5076167;28;20204;-68
2021/10/05 00:53:26;;;;;;;14.87;11.73;;;13.20;99.90;;;;;;5076002;28;20206;-68
2021/10/05 00:55:55;;;;;;;14.45;12.07;;;13.20;99.90;;;;;;5076097;28;20207;-68
2021/10/05 00:58:23;;;;;;;13.63;10.87;;;13.20;99.90;;;;;;5075875;28;20197;-68
2021/10/05 01:00:51;;;;;;;12.60;10.27;;;13.20;99.90;;;;;;5075886;28;20207;-68
2021/10/05 01:03:19;;;;;;;13.57;10.87;;;13.20;99.90;;;;;;5075946;28;20208;-68
2021/10/05 01:05:47;;;;;;;14.53;10.60;;;13.10;99.90;;;;;;5075837;28;20196;-68
2021/10/05 01:08:20;;;;;;;14.37;11.00;;;13.10;99.90;;;;;;5075703;28;20207;-69
2021/10/05 01:10:48;;;;;;;15.87;12.30;;;13.20;99.90;;;;;;5075837;28;20217;-68
2021/10/05 01:13:17;;;;;;;14.33;11.10;;;13.20;99.90;;;;;;5075629;28;20292;-69
2021/10/05 01:15:45;;;;;;;14.90;11.37;;;13.20;99.90;;;;;;5075720;28;20232;-69
2021/10/05 01:18:13;;;;;;;13.23;10.80;;;13.20;99.90;;;;;;5075693;28;20201;-70
2021/10/05 01:20:57;;;;;;;13.80;11.03;;;13.20;99.90;;;;;;5075690;28;20203;-69
2021/10/05 01:23:26;;;;;;;14.83;11.00;;;13.20;99.90;;;;;;5075547;28;20276;-68
2021/10/05 01:25:54;;;;;;;15.18;11.45;;;13.20;99.90;;;;;;5075512;28;20291;-69
2021/10/05 01:28:24;;;;;;;13.37;11.13;;;13.10;99.90;;;;;;5075111;28;20714;-69
2021/10/05 01:30:52;;;;;;;15.17;12.07;;;13.20;99.90;;;;;;5075452;28;20200;-69
2021/10/05 01:33:23;;;;;;;17.63;12.47;;;13.10;99.90;;;;;;5075411;28;20527;-68
2021/10/05 01:35:51;;;;;;;16.67;12.10;;;13.10;99.90;;;;;;5075302;28;20207;-67
2021/10/05 01:38:21;;;;;;;13.60;11.07;;;13.00;99.90;;;;;;5075208;28;20273;-68
2021/10/05 01:40:50;;;;;;;13.50;11.27;;;12.90;99.90;;;;;;5075463;28;20208;-68
2021/10/05 01:43:18;;;;;;;17.98;13.00;;;12.80;99.90;;;;;;5075232;28;20562;-68
2021/10/05 01:45:46;;;;;;;15.20;12.23;;;12.80;99.90;;;;;;5073753;28;20598;-69
2021/10/05 01:48:14;;;;;;;15.63;12.53;;;12.80;99.90;;;;;;5074707;28;20228;-69
2021/10/05 01:50:42;;;;;;;17.93;13.07;;;12.80;99.90;;;;;;5075162;28;20196;-68
2021/10/05 01:53:09;;;;;;;15.93;13.17;;;12.80;99.90;;;;;;5074652;28;20200;-67
2021/10/05 01:55:39;;;;;;;17.17;13.00;;;12.80;99.90;;;;;;5075105;28;20287;-67
2021/10/05 01:58:06;;;;;;;17.03;12.87;;;12.80;99.90;;;;;;5074638;28;20686;-68
2021/10/05 02:00:34;;;;;;;15.20;12.93;;;12.80;99.90;;;;;;5074825;28;20223;-68
2021/10/05 02:03:02;;;;;;;16.43;13.80;;;12.70;99.90;;;;;;5074760;28;20207;-69
2021/10/05 02:05:30;;;;;;;17.97;13.10;;;12.70;99.90;;;;;;5074872;28;20201;-68
2021/10/05 02:07:58;;;;;;;17.93;13.13;;;12.70;99.90;;;;;;5074559;28;20262;-67
2021/10/05 02:10:26;;;;;;;16.53;12.73;;;12.70;99.90;;;;;;5074866;28;20332;-67
2021/10/05 02:12:55;;;;;;;15.37;12.10;;;12.70;99.90;;;;;;5074335;28;20240;-67
2021/10/05 02:15:24;;;;;;;15.57;12.33;;;12.70;99.90;;;;;;5074563;28;20266;-68
2021/10/05 02:17:52;;;;;;;17.00;12.97;;;12.70;99.90;;;;;;5074447;28;20763;-67
2021/10/05 02:20:20;;;;;;;17.40;13.70;;;12.80;99.90;;;;;;5074502;28;20224;-68
2021/10/05 02:22:48;;;;;;;20.20;14.07;;;12.80;99.90;;;;;;5074373;28;20200;-68
2021/10/05 02:25:15;;;;;;;17.80;14.10;;;12.70;99.90;;;;;;5074424;28;20287;-66
2021/10/05 02:27:43;;;;;;;17.27;13.80;;;12.80;99.90;;;;;;5074045;28;20221;-67
2021/10/05 02:30:12;;;;;;;15.97;13.00;;;12.70;99.90;;;;;;5074059;28;20299;-69
2021/10/05 02:32:41;;;;;;;16.70;13.00;;;12.80;99.90;;;;;;5074432;28;20239;-67
2021/10/05 02:35:10;;;;;;;18.90;13.70;;;12.80;99.90;;;;;;5073790;28;20288;-67
2021/10/05 02:37:38;;;;;;;16.40;13.20;;;12.80;99.90;;;;;;5073808;28;20219;-67
2021/10/05 02:40:09;;;;;;;16.57;13.50;;;12.80;99.90;;;;;;5073912;28;20291;-68
2021/10/05 02:42:37;;;;;;;15.87;12.60;;;12.90;99.90;;;;;;5074107;28;20181;-68
2021/10/05 02:45:07;;;;;;;15.47;12.67;;;12.90;99.90;;;;;;5074008;28;20196;-68
2021/10/05 02:47:36;;;;;;;17.13;12.20;;;12.90;99.90;;;;;;5073373;28;20235;-67
2021/10/05 02:50:05;;;;;;;14.93;12.00;;;12.90;99.90;;;;;;5073500;28;20205;-67
2021/10/05 02:52:33;;;;;;;13.30;10.80;;;12.90;99.90;;;;;;5073585;28;20308;-67
2021/10/05 02:55:01;;;;;;;13.77;10.87;;;12.90;99.90;;;;;;5073800;28;20211;-68
2021/10/05 02:57:28;;;;;;;12.70;10.18;;;12.90;99.90;;;;;;5073167;28;20295;-68
2021/10/05 02:59:56;;;;;;;13.70;9.37;;;12.90;99.90;;;;;;5073663;28;20295;-68
2021/10/05 03:02:24;;;;;;;11.63;9.80;;;13.00;99.90;;;;;;5073734;28;20230;-68
2021/10/05 03:04:53;;;;;;;10.83;9.37;;;12.90;99.90;;;;;;5073679;28;20205;-68
2021/10/05 03:07:21;;;;;;;11.03;9.10;;;12.90;99.90;;;;;;5073369;28;20316;-68
2021/10/05 03:09:49;;;;;;;10.70;9.00;;;12.90;99.90;;;;;;5073317;28;20211;-68
2021/10/05 03:12:17;;;;;;;9.80;8.60;;;12.80;99.90;;;;;;5073106;28;20712;-69
2021/10/05 03:14:45;;;;;;;11.83;9.00;;;12.80;99.90;;;;;;5073425;28;20200;-68
2021/10/05 03:17:12;;;;;;;10.00;8.47;;;12.80;99.90;;;;;;5073346;28;20205;-67
2021/10/05 03:19:40;;;;;;;9.63;7.90;;;12.80;99.90;;;;;;5073389;28;20201;-68
2021/10/05 03:22:12;;;;;;;9.27;8.27;;;12.70;99.90;;;;;;5073281;28;20193;-68
2021/10/05 03:24:40;;;;;;;8.97;7.63;;;12.70;99.90;;;;;;5073123;28;20203;-67
2021/10/05 03:27:10;;;;;;;10.35;8.23;;;12.80;99.90;;;;;;5072769;28;20204;-71
2021/10/05 03:29:39;;;;;;;10.85;8.35;;;12.70;99.90;;;;;;5073228;28;20236;-66
2021/10/05 03:32:07;;;;;;;9.37;7.70;;;12.70;99.90;;;;;;5073205;28;20207;-67
2021/10/05 03:34:36;;;;;;;10.10;7.70;;;12.70;99.90;;;;;;5072898;28;20791;-69
2021/10/05 03:37:04;;;;;;;10.30;8.20;;;12.60;99.90;;;;;;5072687;28;20295;-69
2021/10/05 03:39:34;;;;;;;8.90;7.77;;;12.60;99.90;;;;;;5072776;28;20280;-68
2021/10/05 03:42:02;;;;;;;9.53;7.67;;;12.70;99.90;;;;;;5072791;28;20304;-67
2021/10/05 03:44:29;;;;;;;9.50;7.50;;;12.70;99.90;;;;;;5072994;28;20295;-68
2021/10/05 03:46:59;;;;;;;10.03;7.43;;;12.70;99.90;;;;;;5072559;28;20239;-69
2021/10/05 03:49:27;;;;;;;9.30;7.97;;;12.70;99.90;;;;;;5072655;28;20205;-67
2021/10/05 03:51:55;;;;;;;8.57;7.27;;;12.70;99.90;;;;;;5072813;28;20661;-68
2021/10/05 03:54:23;;;;;;;7.90;6.73;;;12.70;99.90;;;;;;5072771;28;20236;-68
2021/10/05 03:56:53;;;;;;;9.60;7.43;;;12.60;99.90;;;;;;5072658;28;20201;-67
2021/10/05 03:59:20;;;;;;;9.33;7.37;;;12.50;99.90;;;;;;5072493;28;20783;-68
2021/10/05 04:01:48;;;;;;;7.87;6.53;;;12.50;99.90;;;;;;5072761;28;20207;-67
2021/10/05 04:04:16;;;;;;;9.13;6.63;;;12.60;99.90;;;;;;5072880;28;20201;-67
2021/10/05 04:06:44;;;;;;;7.63;6.70;;;12.60;99.90;;;;;;5072397;28;20207;-67
2021/10/05 04:09:12;;;;;;;8.67;7.03;;;12.60;99.90;;;;;;5071450;28;20227;-68
2021/10/05 04:11:40;;;;;;;9.57;8.10;;;12.60;99.90;;;;;;5072704;28;20300;-67
2021/10/05 04:14:09;;;;;;;7.50;6.70;;;12.60;99.90;;;;;;5072261;28;20635;-67
2021/10/05 04:16:37;;;;;;;8.10;6.23;;;12.60;99.90;;;;;;5072579;28;20236;-68
2021/10/05 04:19:05;;;;;;;8.13;6.40;;;12.60;99.90;;;;;;5072180;28;20659;-69
2021/10/05 04:21:33;;;;;;;8.53;6.23;;;12.60;99.90;;;;;;5072590;28;20292;-68
2021/10/05 04:24:00;;;;;;;7.53;6.60;;;12.60;99.90;;;;;;5072160;28;20300;-67
2021/10/05 04:26:28;;;;;;;8.93;6.70;;;12.60;99.90;;;;;;5072490;28;20295;-67
2021/10/05 04:28:56;;;;;;;7.87;6.17;;;12.70;99.90;;;;;;5072092;28;20623;-68
2021/10/05 04:31:25;;;;;;;11.03;6.30;;;12.60;99.90;;;;;;5072407;28;20291;-67
2021/10/05 04:33:53;;;;;;;7.83;6.40;;;12.50;99.90;;;;;;5072326;28;20258;-68
2021/10/05 04:36:21;;;;;;;8.50;6.23;;;12.50;99.90;;;;;;5072430;28;20228;-68
2021/10/05 04:38:49;;;;;;;8.60;6.23;;;12.50;99.90;;;;;;5071941;28;20292;-67
2021/10/05 04:41:17;;;;;;;8.63;7.17;;;12.50;99.90;;;;;;5072403;28;20205;-69
2021/10/05 04:43:45;;;;;;;9.33;6.53;;;12.50;99.90;;;;;;5072319;28;20203;-68
2021/10/05 04:46:13;;;;;;;10.10;6.90;;;12.40;99.90;;;;;;5072137;28;20679;-68
2021/10/05 04:48:42;;;;;;;8.90;6.40;;;12.40;99.90;;;;;;5071905;28;20216;-68
2021/10/05 04:51:10;;;;;;;15.33;7.10;;;12.40;99.90;;;;;;5072081;28;20636;-68
2021/10/05 04:53:38;;;;;;;7.80;5.93;;;12.40;99.90;;;;;;5071974;28;20295;-68
2021/10/05 04:56:06;;;;;;;8.40;5.63;;;12.40;99.90;;;;;;5071895;28;20307;-66
2021/10/05 04:58:34;;;;;;;8.37;5.30;;;12.30;99.90;;;;;;5072030;28;20204;-69
2021/10/05 05:01:01;;;;;;;6.47;4.80;;;12.30;99.90;;;;;;5071844;28;20280;-67
2021/10/05 05:03:30;;;;;;;9.20;5.37;;;12.30;99.90;;;;;;5071632;28;20292;-68
2021/10/05 05:05:59;;;;;;;8.07;5.63;;;12.20;99.90;;;;;;5071891;28;20300;-67
2021/10/05 05:08:27;;;;;;;9.77;5.80;;;12.10;99.90;;;;;;5071718;28;20212;-67
2021/10/05 05:10:54;;;;;;;7.83;5.87;;;12.10;99.90;;;;;;5071637;28;20731;-68
2021/10/05 05:13:22;;;;;;;7.67;5.43;;;12.10;99.90;;;;;;5071934;28;20315;-67
2021/10/05 05:15:50;;;;;;;9.23;6.00;;;12.10;99.90;;;;;;5072009;28;20201;-68
2021/10/05 05:18:18;;;;;;;8.23;5.93;;;12.10;99.90;;;;;;5072105;28;20208;-67
2021/10/05 05:20:46;;;;;;;9.07;5.90;;;12.10;99.90;;;;;;5074435;28;20207;-67
2021/10/05 05:23:15;;;;;;;6.40;5.40;;;12.10;99.90;;;;;;5075338;28;20196;-68
2021/10/05 05:25:44;;;;;;;7.07;5.00;;;12.20;99.90;;;;;;5075352;28;20206;-67
2021/10/05 05:28:14;;;;;;;9.33;5.47;;;12.10;99.90;;;;;;5075261;28;20200;-67
2021/10/05 05:30:42;;;;;;;8.70;5.87;;;12.10;99.90;;;;;;5075348;28;20204;-68
2021/10/05 05:33:10;;;;;;;8.90;5.60;;;12.10;99.90;;;;;;5075302;28;20207;-68
2021/10/05 05:35:38;;;;;;;10.23;6.03;;;12.20;99.90;;;;;;5075403;28;20200;-67
2021/10/05 05:38:06;;;;;;;6.23;5.30;;;12.20;99.90;;;;;;5075450;28;20288;-67
2021/10/05 05:40:35;;;;;;;8.33;5.40;;;12.20;99.90;;;;;;5075182;28;20227;-67
2021/10/05 05:43:03;;;;;;;7.13;5.30;;;12.20;99.90;;;;;;5074893;28;20670;-68
2021/10/05 05:45:33;;;;;;;6.37;5.13;;;12.20;99.90;;;;;;5075479;28;20686;-68
2021/10/05 05:48:02;;;;;;;7.80;5.20;;;12.20;99.90;;;;;;5075554;28;20319;-67
2021/10/05 05:50:30;;;;;;;8.17;5.40;;;12.20;99.90;;;;;;5075833;28;20238;-68
2021/10/05 05:52:58;;;;;;;7.53;5.23;;;12.30;99.90;;;;;;5076056;28;20201;-68
2021/10/05 05:55:26;;;;;;;8.30;5.67;;;12.30;99.90;;;;;;5075616;28;20212;-66
2021/10/05 05:57:55;;;;;;;8.83;5.47;;;12.30;99.90;;;;;;5075733;28;20242;-68
2021/10/05 06:00:23;;;;;;;8.10;5.57;;;12.30;99.90;;;;;;5075882;28;20235;-68
2021/10/05 06:02:51;;;;;;;8.97;6.00;;;12.30;99.90;;;;;;5075965;28;20205;-68
2021/10/05 06:05:24;;;;;;;6.47;5.30;;;12.20;99.90;;;;;;5075701;28;20226;-67
2021/10/05 06:07:52;;;;;;;8.97;5.60;;;12.30;99.90;;;;;;5075316;28;20247;-67
2021/10/05 06:10:20;;;;;;;8.83;5.70;;;12.20;99.90;;;;;;5075637;28;20212;-67
2021/10/05 06:12:47;;;;;;;7.13;5.57;;;12.30;99.90;;;;;;5075133;28;20218;-67
2021/10/05 06:15:18;;;;;;;10.23;5.93;;;12.40;99.90;;;;;;5075613;28;20753;-69
2021/10/05 06:17:50;;;;;;;9.27;6.27;;;12.40;99.90;;;;;;5075599;28;20257;-68
2021/10/05 06:20:21;;;;;;;10.70;5.57;;;12.30;99.90;;;;;;5075279;28;20204;-67
2021/10/05 06:22:50;;;;;;;10.33;6.00;;;12.40;99.90;;;;;;5075168;28;20191;-67
2021/10/05 06:25:22;;;;;;;8.97;5.83;;;12.40;99.90;;;;;;5075160;28;20197;-68
2021/10/05 06:27:51;;;;;;;9.03;5.87;;;12.40;99.90;;;;;;5077927;28;20192;-68
2021/10/05 06:30:20;;;;;;;7.80;6.20;;;12.40;99.90;;;;;;5076190;28;20220;-67
2021/10/05 06:32:54;;;;;;;7.17;5.93;;;12.40;99.90;;;;;;5074860;28;20242;-68
2021/10/05 06:35:25;;;;;;;8.57;6.53;;;12.40;99.90;;;;;;5076407;28;20244;-68
2021/10/05 06:37:54;;;;;;;10.37;6.30;;;12.40;99.90;;;;;;5079875;28;20189;-68
2021/10/05 06:40:23;;;;;;;10.60;6.32;;;12.40;99.90;;;;;;5079073;28;20204;-68
2021/10/05 06:42:51;;;;;;;10.97;7.20;;;12.40;99.90;;;;;;5078597;28;20228;-68
2021/10/05 06:45:21;;;;;;;10.17;6.63;;;12.40;99.90;;;;;;5079026;28;20205;-68
2021/10/05 06:47:49;;;;;;;9.13;6.43;;;12.40;99.90;;;;;;5078565;28;20237;-67
2021/10/05 06:50:18;;;;;;;10.17;7.00;;;12.30;99.90;;;;;;5075239;28;20221;-68
2021/10/05 06:52:45;;;;;;;8.50;6.80;;;12.40;99.90;;;;;;5074762;28;20233;-68
2021/10/05 06:55:14;;;;;;;8.67;6.13;;;12.50;99.90;;;;;;5074226;28;20201;-68
2021/10/05 06:57:42;;;;;;;9.50;7.70;;;12.40;99.90;;;;;;5073794;28;20402;-68
2021/10/05 07:00:13;;;;;;;8.27;7.20;;;12.50;99.90;;;;;;5073853;28;20362;-68
2021/10/05 07:02:45;;;;;;;10.07;7.10;;;12.50;99.90;;;;;;5074488;28;20243;-68
2021/10/05 07:05:13;;;;;;;10.13;7.90;;;12.40;99.90;;;;;;5074079;28;20243;-68
2021/10/05 07:07:42;;;;;;;10.30;7.27;;;12.40;99.90;;;;;;5073049;28;20225;-68
2021/10/05 07:10:11;;;;;;;11.07;7.60;;;12.40;99.90;;;;;;5073892;28;20767;-68
2021/10/05 07:12:40;;;;;;;10.10;8.17;;;12.40;99.90;;;;;;5073612;28;20300;-67
2021/10/05 07:15:09;;;;;;;10.00;7.87;;;12.40;99.90;;;;;;5074026;28;20201;-68
2021/10/05 07:17:37;;;;;;;10.33;8.30;;;12.40;99.90;;;;;;5073396;28;20563;-68
2021/10/05 07:20:08;;;;;;;9.53;7.37;;;12.40;99.90;;;;;;5073774;28;20295;-68
2021/10/05 07:22:36;;;;;;;12.57;8.37;;;12.40;99.90;;;;;;5072343;28;20189;-68
2021/10/05 07:25:04;;;;;;;10.67;7.80;;;12.30;99.90;;;;;;5072851;28;20296;-68
2021/10/05 07:27:35;;;;;;;8.57;7.17;;;12.40;99.90;;;;;;5073088;28;20258;-68
2021/10/05 07:30:04;;;;;;;11.20;8.00;;;12.30;99.90;;;;;;5072850;28;20316;-67
2021/10/05 07:32:32;;;;;;;10.43;8.47;;;12.40;99.90;;;;;;5072849;28;20522;-70
2021/10/05 07:35:00;;;;;;;9.07;7.80;;;12.40;99.90;;;;;;5072843;28;20316;-68
2021/10/05 07:37:29;;;;;;;11.20;8.07;;;12.40;99.90;;;;;;5072721;28;20833;-70
2021/10/05 07:39:58;;;;;;;12.07;8.87;;;12.30;99.90;;;;;;5072467;28;20784;-68
2021/10/05 07:42:26;;;;;;;12.93;8.80;;;12.40;99.90;;;;;;5072185;28;20289;-68
2021/10/05 07:44:54;;;;;;;14.97;8.07;;;12.40;99.90;;;;;;5072479;28;20222;-69
2021/10/05 07:47:22;;;;;;;8.27;7.47;;;12.40;99.90;;;;;;5072403;28;20759;-69
2021/10/05 07:49:51;;;;;;;10.20;8.37;;;12.40;99.90;;;;;;5072624;28;20207;-68
2021/10/05 07:52:20;;;;;;;9.80;7.67;;;12.40;99.90;;;;;;5072828;28;20231;-69
2021/10/05 07:54:50;;;;;;;10.43;7.77;;;12.50;99.90;;;;;;5072393;28;20213;-68
2021/10/05 07:57:17;;;;;;;10.30;8.40;;;12.40;99.90;;;;;;5072615;28;20284;-69
2021/10/05 07:59:48;;;;;;;9.63;7.93;;;12.40;99.90;;;;;;5072511;28;20204;-68
2021/10/05 08:02:16;;;;;;;10.33;8.47;;;12.50;99.90;;;;;;5072662;28;20189;-68
2021/10/05 08:04:44;;;;;;;10.77;8.57;;;12.40;99.90;;;;;;5072642;28;20196;-68
2021/10/05 08:07:12;;;;;;;11.20;8.73;;;12.40;99.90;;;;;;5072314;28;20306;-67
2021/10/05 08:09:40;;;;;;;10.70;8.80;;;12.50;99.90;;;;;;5072549;28;20296;-67
2021/10/05 08:12:09;;;;;;;12.07;9.40;;;12.50;99.90;;;;;;5072426;28;20203;-66
2021/10/05 08:14:39;;;;;;;10.80;8.90;;;12.50;99.90;;;;;;5072108;28;20284;-67
2021/10/05 08:17:07;;;;;;;11.03;8.80;;;12.40;99.90;;;;;;5072531;28;20201;-65
2021/10/05 08:19:35;;;;;;;9.30;8.30;;;12.50;99.90;;;;;;5072474;28;20205;-66
2021/10/05 08:22:03;;;;;;;10.37;9.33;;;12.50;99.90;;;;;;5072151;28;20231;-65
2021/10/05 08:24:31;;;;;;;10.73;9.03;;;12.40;99.90;;;;;;5072332;28;20303;-66
2021/10/05 08:26:59;;;;;;;12.27;9.77;;;12.40;99.90;;;;;;5072195;28;20361;-66
2021/10/05 08:29:29;;;;;;;10.23;8.97;;;12.40;99.90;;;;;;5072059;28;20287;-66
2021/10/05 08:31:57;;;;;;;10.23;8.70;;;12.50;99.90;;;;;;5072277;28;20328;-65
2021/10/05 08:34:25;;;;;;;11.53;9.20;;;12.40;99.90;;;;;;5072237;28;20700;-65
2021/10/05 08:36:53;;;;;;;9.63;8.63;;;12.50;99.90;;;;;;5072394;28;20222;-66
2021/10/05 08:39:20;;;;;;;9.10;8.03;;;12.50;99.90;;;;;;5072203;28;20291;-65
2021/10/05 08:41:50;;;;;;;10.83;8.33;;;12.50;99.90;;;;;;5072164;28;20258;-67
2021/10/05 08:44:18;;;;;;;8.83;7.93;;;12.50;99.90;;;;;;5072150;28;20284;-65
2021/10/05 08:46:47;;;;;;;9.23;7.80;;;12.50;99.90;;;;;;5065656;28;20770;-66
2021/10/05 08:49:15;;;;;;;10.40;8.65;;;12.40;99.90;;;;;;5052315;28;20193;-65
2021/10/05 08:51:43;;;;;;;7.93;7.10;;;12.40;99.90;;;;;;5051687;28;20221;-67
2021/10/05 08:54:11;;;;;;;8.40;7.60;;;12.40;99.90;;;;;;5062340;28;20212;-66
2021/10/05 08:56:41;;;;;;;9.07;8.17;;;12.40;99.90;;;;;;5075917;28;20197;-66
2021/10/05 08:59:09;;;;;;;8.30;7.47;;;12.50;99.90;;;;;;5075829;28;20196;-66
2021/10/05 09:01:37;;;;;;;10.13;8.23;;;12.50;99.90;;;;;;5075458;28;20279;-66
2021/10/05 09:04:07;;;;;;;9.13;7.80;;;12.60;99.90;;;;;;5075820;28;20205;-66
2021/10/05 09:06:37;;;;;;;8.57;7.67;;;12.60;99.90;;;;;;5075595;28;20571;-66
2021/10/05 09:09:05;;;;;;;8.57;7.67;;;12.60;99.90;;;;;;5075474;28;20231;-66
2021/10/05 09:11:42;;;;;;;8.33;7.43;;;12.60;99.90;;;;;;5075500;28;20219;-66
2021/10/05 09:14:10;;;;;;;8.37;7.57;;;12.60;99.90;;;;;;5075441;28;20187;-67
2021/10/05 09:16:38;;;;;;;8.10;7.30;;;12.60;99.90;;;;;;5075420;28;20228;-66
2021/10/05 09:19:09;;;;;;;8.32;7.00;;;12.60;99.90;;;;;;5075490;28;20226;-65
2021/10/05 09:21:39;;;;;;;7.83;7.03;;;12.60;99.90;;;;;;5075665;28;20204;-67
2021/10/05 09:24:09;;;;;;;8.80;7.90;;;12.60;99.90;;;;;;5075106;28;20291;-66
2021/10/05 09:26:43;;;;;;;9.73;8.73;;;12.60;99.90;;;;;;5075343;28;20200;-66
2021/10/05 09:29:13;;;;;;;10.77;9.00;;;12.60;99.90;;;;;;5074950;28;20281;-66
2021/10/05 09:31:54;;;;;;;9.70;8.40;;;12.60;99.90;;;;;;5075160;28;20315;-65
2021/10/05 09:34:35;;;;;;;9.83;8.70;;;12.60;99.90;;;;;;5074903;28;20624;-65
2021/10/05 09:37:07;;;;;;;10.83;9.73;;;12.60;99.90;;;;;;5074661;28;20224;-65
2021/10/05 09:39:40;;;;;;;9.90;8.90;;;12.60;99.90;;;;;;5075102;28;20208;-66
2021/10/05 09:42:09;;;;;;;11.03;9.43;;;12.60;99.90;;;;;;5074886;28;20272;-66
2021/10/05 09:44:37;;;;;;;11.63;10.47;;;12.60;99.90;;;;;;5074829;28;20725;-66
2021/10/05 09:47:05;;;;;;;10.77;9.67;;;12.70;99.90;;;;;;5074774;28;20250;-66
2021/10/05 09:49:45;;;;;;;11.50;10.03;;;12.70;99.90;;;;;;5074856;28;20279;-64
2021/10/05 09:52:13;;;;;;;10.93;9.60;;;12.70;99.90;;;;;;5074592;28;20299;-65
2021/10/05 09:54:42;;;;;;;10.20;9.20;;;12.80;99.90;;;;;;5074841;28;20296;-65
2021/10/05 09:57:10;;;;;;;11.13;9.43;;;12.80;99.90;;;;;;5074278;28;20644;-65
2021/10/05 09:59:37;;;;;;;10.47;9.23;;;12.80;99.90;;;;;;5074693;28;20301;-65
2021/10/05 10:02:06;;;;;;;10.90;9.07;;;12.70;99.90;;;;;;5074761;28;20228;-66
2021/10/05 10:04:35;;;;;;;11.07;9.97;;;12.70;99.90;;;;;;5074634;28;20227;-66
2021/10/05 10:07:07;;;;;;;11.07;9.50;;;12.70;99.90;;;;;;5073738;28;20231;-65
2021/10/05 10:09:36;;;;;;;9.13;8.23;;;12.70;99.90;;;;;;5074631;28;20203;-65
2021/10/05 10:12:05;;;;;;;10.53;9.43;;;12.70;99.90;;;;;;5074313;28;20224;-66
2021/10/05 10:14:33;;;;;;;10.77;9.13;;;12.70;99.90;;;;;;5074453;28;20226;-65
2021/10/05 10:17:01;;;;;;;10.03;9.03;;;12.70;99.90;;;;;;5074331;28;20243;-64
2021/10/05 10:19:32;;;;;;;10.77;9.67;;;12.70;99.90;;;;;;5074539;28;20296;-66
2021/10/05 10:22:11;;;;;;;10.70;9.60;;;12.70;99.90;;;;;;5074375;28;20178;-65
2021/10/05 10:24:48;;;;;;;9.17;8.27;;;12.70;99.90;;;;;;5074354;28;20220;-65
2021/10/05 10:27:16;;;;;;;10.40;9.40;;;12.70;99.90;;;;;;5074432;28;20283;-64
2021/10/05 10:30:09;;;;;;;9.70;8.70;;;12.70;99.90;;;;;;5074444;28;20308;-64
2021/10/05 10:32:45;;;;;;;8.77;7.87;;;12.80;99.90;;;;;;5074337;28;20200;-65
2021/10/05 10:35:13;;;;;;;13.07;11.67;;;12.80;99.90;;;;;;5074326;28;20188;-66
2021/10/05 10:37:44;;;;;;;10.20;8.47;;;12.80;99.90;;;;;;5074314;28;20278;-65
2021/10/05 10:40:14;;;;;;;8.17;7.37;;;12.80;99.90;;;;;;5073865;28;20636;-66
2021/10/05 10:42:42;;;;;;;8.17;7.37;;;12.70;99.90;;;;;;5074050;28;20224;-65
2021/10/05 10:45:15;;;;;;;7.60;6.80;;;12.80;99.90;;;;;;5074302;28;20212;-67
2021/10/05 10:47:44;;;;;;;8.37;7.47;;;12.80;99.90;;;;;;5074306;28;20311;-64
2021/10/05 10:50:14;;;;;;;7.50;6.80;;;12.90;99.90;;;;;;5073984;28;20672;-64
2021/10/05 10:52:45;;;;;;;8.13;6.50;;;12.90;99.90;;;;;;5073780;28;20751;-67
2021/10/05 10:55:17;;;;;;;7.23;6.53;;;12.90;99.90;;;;;;5073466;28;20683;-67
2021/10/05 10:57:55;;;;;;;6.77;6.17;;;12.90;99.90;;;;;;5073645;28;20185;-65
2021/10/05 11:00:28;;;;;;;7.00;6.30;;;13.00;99.90;;;;;;5073718;28;20239;-66
2021/10/05 11:02:57;;;;;;;6.03;5.50;;;13.00;99.90;;;;;;5073148;28;20200;-64
2021/10/05 11:05:31;;;;;;;5.90;5.30;;;13.00;99.90;;;;;;5073605;28;20189;-65
2021/10/05 11:08:00;;;;;;;4.93;4.50;;;13.00;99.90;;;;;;5073269;28;20188;-66
2021/10/05 11:10:30;;;;;;;6.00;5.40;;;13.00;99.90;;;;;;5073519;28;20205;-67
2021/10/05 11:12:59;;;;;;;6.60;5.90;;;12.90;99.90;;;;;;5073090;28;20307;-65
2021/10/05 11:15:36;;;;;;;5.97;5.37;;;12.90;99.90;;;;;;5073369;28;20427;-66
2021/10/05 11:18:09;;;;;;;5.60;5.07;;;12.90;99.90;;;;;;5072915;28;20207;-65
2021/10/05 11:20:38;;;;;;;5.40;4.90;;;13.00;99.90;;;;;;5073538;28;20247;-64
2021/10/05 11:23:08;;;;;;;5.13;4.73;;;13.00;99.90;;;;;;5072901;28;20193;-66
2021/10/05 11:25:36;;;;;;;5.57;5.07;;;13.00;99.90;;;;;;5073172;28;20285;-64
2021/10/05 11:28:09;;;;;;;5.23;4.73;;;13.10;99.90;;;;;;5073069;28;20280;-65
2021/10/05 11:30:51;;;;;;;5.03;4.53;;;13.20;99.90;;;;;;5073166;28;20293;-66
2021/10/05 11:33:25;;;;;;;4.90;4.50;;;13.30;99.90;;;;;;5072726;28;20211;-65
2021/10/05 11:35:55;;;;;;;4.40;4.10;;;13.30;99.90;;;;;;5072810;28;20706;-65
2021/10/05 11:38:24;;;;;;;4.77;4.37;;;13.30;99.90;;;;;;5072799;28;20287;-66
2021/10/05 11:40:55;;;;;;;5.17;4.10;;;13.40;99.90;;;;;;5073217;28;20196;-66
2021/10/05 11:43:32;;;;;;;4.93;4.10;;;13.30;99.90;;;;;;5073151;28;20181;-67
2021/10/05 11:46:06;;;;;;;4.93;4.53;;;13.20;99.90;;;;;;5073006;28;20245;-66
2021/10/05 11:48:38;;;;;;;5.00;4.60;;;13.20;99.90;;;;;;5072403;28;20572;-66
2021/10/05 11:51:06;;;;;;;5.07;4.57;;;13.10;99.90;;;;;;5072742;28;20283;-65
2021/10/05 11:53:36;;;;;;;4.87;4.47;;;13.10;99.90;;;;;;5072236;28;20227;-67
2021/10/05 11:56:06;;;;;;;7.10;5.57;;;13.10;99.90;;;;;;5072802;28;20278;-65
2021/10/05 11:58:45;;;;;;;6.87;6.17;;;13.10;99.90;;;;;;5072409;28;20292;-65
2021/10/05 12:01:16;;;;;;;7.17;6.33;;;13.00;99.90;;;;;;5072697;28;20615;-65
2021/10/05 12:03:46;;;;;;;7.97;7.20;;;13.10;99.90;;;;;;5072526;28;20192;-65
2021/10/05 12:06:26;;;;;;;7.70;7.00;;;13.00;99.90;;;;;;5072755;28;20595;-66
2021/10/05 12:08:55;;;;;;;7.17;6.50;;;13.00;99.90;;;;;;5072655;28;20187;-66
2021/10/05 12:11:34;;;;;;;6.93;6.33;;;13.00;99.90;;;;;;5072531;28;20207;-66
2021/10/05 12:14:02;;;;;;;6.90;6.30;;;12.90;99.90;;;;;;5072458;28;20209;-67
2021/10/05 12:16:30;;;;;;;6.40;5.77;;;13.00;99.90;;;;;;5072546;28;20422;-65
2021/10/05 12:18:59;;;;;;;6.70;6.10;;;13.00;99.90;;;;;;5072655;28;20619;-66
2021/10/05 12:21:28;;;;;;;6.60;5.90;;;13.10;99.90;;;;;;5072225;28;20759;-66
2021/10/05 12:23:59;;;;;;;6.57;5.97;;;13.10;99.90;;;;;;5072012;28;20203;-65
2021/10/05 12:26:27;;;;;;;7.10;6.20;;;13.20;99.90;;;;;;5072328;28;20659;-69
2021/10/05 12:28:58;;;;;;;7.63;6.70;;;13.20;99.90;;;;;;5072469;28;20291;-66
2021/10/05 12:31:27;;;;;;;7.57;6.73;;;13.20;99.90;;;;;;5076538;28;20195;-66
2021/10/05 12:33:58;;;;;;;7.93;7.13;;;13.20;99.90;;;;;;5076289;28;20224;-66
2021/10/05 12:36:26;;;;;;;8.13;7.30;;;13.20;99.90;;;;;;5076501;28;20347;-65
2021/10/05 12:38:54;;;;;;;8.88;7.97;;;13.10;99.90;;;;;;5076273;28;20197;-66
2021/10/05 12:41:23;;;;;;;9.83;8.70;;;13.20;99.90;;;;;;5076325;28;20299;-65
2021/10/05 12:43:52;;;;;;;9.30;8.30;;;13.10;99.90;;;;;;5076116;28;20613;-68
2021/10/05 12:46:21;;;;;;;10.73;9.33;;;13.10;99.90;;;;;;5076304;28;20247;-67
2021/10/05 12:48:51;;;;;;;11.77;10.03;;;13.10;99.90;;;;;;5076171;28;20185;-66
2021/10/05 12:51:22;;;;;;;13.70;11.53;;;13.10;99.90;;;;;;5076342;28;20291;-67